Echo Bay, Nevada
Current Conditions -  °F | °C
As of 9:58 PM on Sunday 21 Dec 2014 (Local Time) from KLSV Reporting Station
Clear Clear  
Wind Chill: 43°   Ceiling: Unl
Heat Index: 49°   Visibility: 10mi
Dew Point: 41°   Wind: 14mph
Humidity: 75%   Direction: 80°E
Pressure: 30.08"   Gusts: NA
Location:  36.5809°N, 114.605°W
Report Text: KLSV 220558Z AUTO 08012KT 10SM CLR 09/05 A3008 RMK AO2 SLP185 T00930050 10126 20073 55001 $
Loading
Personal Weather Stations






























Interactive Weather Map New forecast layout! Learn more

10-Day Weather Forecast

Advertisements
Track Severe Weather on mobile